sensor_id;sensor_type;location;lat;lon;timestamp;pressure;altitude;pressure_sealevel;temperature;humidity
19624;BME280;9959;49.798;9.928;2023-03-25T00:00:15;98803.16;;;8.62;100.00
19624;BME280;9959;49.798;9.928;2023-03-25T00:02:45;98799.63;;;8.61;100.00
19624;BME280;9959;49.798;9.928;2023-03-25T00:05:15;98802.09;;;8.63;100.00
19624;BME280;9959;49.798;9.928;2023-03-25T00:07:44;98805.84;;;8.62;100.00
19624;BME280;9959;49.798;9.928;2023-03-25T00:10:12;98810.16;;;8.63;100.00
19624;BME280;9959;49.798;9.928;2023-03-25T00:12:40;98808.03;;;8.71;100.00
19624;BME280;9959;49.798;9.928;2023-03-25T00:15:09;98800.78;;;8.72;100.00
19624;BME280;9959;49.798;9.928;2023-03-25T00:17:37;98805.25;;;8.78;100.00
19624;BME280;9959;49.798;9.928;2023-03-25T00:20:06;98796.47;;;8.71;100.00
19624;BME280;9959;49.798;9.928;2023-03-25T00:22:53;98778.94;;;8.68;100.00
19624;BME280;9959;49.798;9.928;2023-03-25T00:25:20;98798.72;;;8.74;100.00
19624;BME280;9959;49.798;9.928;2023-03-25T00:27:47;98771.19;;;8.54;100.00
19624;BME280;9959;49.798;9.928;2023-03-25T00:30:18;98780.72;;;8.49;100.00
19624;BME280;9959;49.798;9.928;2023-03-25T00:32:45;98765.53;;;8.43;100.00
19624;BME280;9959;49.798;9.928;2023-03-25T00:35:15;98774.00;;;8.40;99.46
19624;BME280;9959;49.798;9.928;2023-03-25T00:37:46;98781.06;;;8.35;98.85
19624;BME280;9959;49.798;9.928;2023-03-25T00:40:13;98772.59;;;8.31;98.83
19624;BME280;9959;49.798;9.928;2023-03-25T00:42:40;98764.75;;;8.30;98.68
19624;BME280;9959;49.798;9.928;2023-03-25T00:45:11;98764.22;;;8.21;99.67
19624;BME280;9959;49.798;9.928;2023-03-25T00:47:38;98760.69;;;8.21;99.69
19624;BME280;9959;49.798;9.928;2023-03-25T00:52:34;98756.69;;;8.05;100.00
19624;BME280;9959;49.798;9.928;2023-03-25T00:55:02;98753.75;;;8.13;100.00
19624;BME280;9959;49.798;9.928;2023-03-25T00:57:30;98764.44;;;8.20;100.00
19624;BME280;9959;49.798;9.928;2023-03-25T00:59:57;98750.09;;;8.07;100.00
19624;BME280;9959;49.798;9.928;2023-03-25T01:02:24;98759.13;;;8.13;100.00
19624;BME280;9959;49.798;9.928;2023-03-25T01:04:51;98756.22;;;8.14;100.00
19624;BME280;9959;49.798;9.928;2023-03-25T01:07:18;98762.41;;;8.15;100.00
19624;BME280;9959;49.798;9.928;2023-03-25T01:09:46;98761.22;;;8.11;100.00
19624;BME280;9959;49.798;9.928;2023-03-25T01:12:16;98753.88;;;8.25;100.00
19624;BME280;9959;49.798;9.928;2023-03-25T01:14:44;98754.84;;;8.30;99.28
19624;BME280;9959;49.798;9.928;2023-03-25T01:17:11;98761.47;;;8.34;99.24
19624;BME280;9959;49.798;9.928;2023-03-25T01:19:38;98764.16;;;8.34;99.07
19624;BME280;9959;49.798;9.928;2023-03-25T01:22:05;98752.94;;;8.44;97.56
19624;BME280;9959;49.798;9.928;2023-03-25T01:24:32;98758.13;;;8.39;98.14
19624;BME280;9959;49.798;9.928;2023-03-25T01:26:59;98756.56;;;8.49;96.22
19624;BME280;9959;49.798;9.928;2023-03-25T01:29:26;98758.13;;;8.39;97.98
19624;BME280;9959;49.798;9.928;2023-03-25T01:31:53;98748.03;;;8.34;97.35
19624;BME280;9959;49.798;9.928;2023-03-25T01:34:21;98753.81;;;8.31;96.77
19624;BME280;9959;49.798;9.928;2023-03-25T01:36:48;98751.09;;;8.13;99.86
19624;BME280;9959;49.798;9.928;2023-03-25T01:39:16;98747.66;;;8.24;96.46
19624;BME280;9959;49.798;9.928;2023-03-25T01:41:46;98760.34;;;8.17;97.06
19624;BME280;9959;49.798;9.928;2023-03-25T01:46:48;98755.50;;;8.01;97.65
19624;BME280;9959;49.798;9.928;2023-03-25T01:49:20;98749.31;;;8.00;97.49
19624;BME280;9959;49.798;9.928;2023-03-25T01:51:53;98758.34;;;8.06;94.55
19624;BME280;9959;49.798;9.928;2023-03-25T01:54:22;98750.91;;;8.08;93.26
19624;BME280;9959;49.798;9.928;2023-03-25T01:56:50;98752.19;;;7.99;94.02
19624;BME280;9959;49.798;9.928;2023-03-25T01:59:19;98733.59;;;8.04;92.47
19624;BME280;9959;49.798;9.928;2023-03-25T02:01:50;98739.63;;;7.99;92.41
19624;BME280;9959;49.798;9.928;2023-03-25T02:04:29;98753.66;;;7.95;92.52
19624;BME280;9959;49.798;9.928;2023-03-25T02:07:00;98756.81;;;7.92;92.39
19624;BME280;9959;49.798;9.928;2023-03-25T02:09:28;98761.81;;;7.81;93.11
19624;BME280;9959;49.798;9.928;2023-03-25T02:11:55;98752.53;;;7.84;92.70
19624;BME280;9959;49.798;9.928;2023-03-25T02:14:26;98749.41;;;7.87;92.02
19624;BME280;9959;49.798;9.928;2023-03-25T02:43:39;98746.28;;;7.59;92.77
19624;BME280;9959;49.798;9.928;2023-03-25T02:46:10;98752.47;;;7.59;93.20
19624;BME280;9959;49.798;9.928;2023-03-25T02:48:48;98748.31;;;7.63;93.16
19624;BME280;9959;49.798;9.928;2023-03-25T02:51:24;98740.44;;;7.68;92.67
19624;BME280;9959;49.798;9.928;2023-03-25T02:53:52;98767.00;;;7.76;92.26
19624;BME280;9959;49.798;9.928;2023-03-25T02:56:23;98758.56;;;7.73;93.29
19624;BME280;9959;49.798;9.928;2023-03-25T02:58:53;98759.81;;;7.70;94.58
19624;BME280;9959;49.798;9.928;2023-03-25T03:01:22;98767.25;;;7.68;96.09
19624;BME280;9959;49.798;9.928;2023-03-25T03:03:53;98770.19;;;7.60;100.00
19624;BME280;9959;49.798;9.928;2023-03-25T03:06:26;98771.03;;;7.54;100.00
19624;BME280;9959;49.798;9.928;2023-03-25T03:11:39;98753.34;;;7.40;100.00
19624;BME280;9959;49.798;9.928;2023-03-25T03:14:35;98751.28;;;7.42;100.00
19624;BME280;9959;49.798;9.928;2023-03-25T03:19:45;98753.53;;;7.45;100.00
19624;BME280;9959;49.798;9.928;2023-03-25T03:25:05;98777.03;;;7.50;100.00
19624;BME280;9959;49.798;9.928;2023-03-25T03:30:52;98795.13;;;7.09;100.00
19624;BME280;9959;49.798;9.928;2023-03-25T03:33:46;98781.34;;;6.86;100.00
19624;BME280;9959;49.798;9.928;2023-03-25T03:36:19;98777.28;;;6.77;100.00
19624;BME280;9959;49.798;9.928;2023-03-25T03:38:49;98773.78;;;6.70;100.00
19624;BME280;9959;49.798;9.928;2023-03-25T03:41:25;98747.84;;;6.70;100.00
19624;BME280;9959;49.798;9.928;2023-03-25T03:43:59;98750.50;;;6.64;100.00
19624;BME280;9959;49.798;9.928;2023-03-25T03:46:57;98743.31;;;6.64;99.99
19624;BME280;9959;49.798;9.928;2023-03-25T03:49:28;98751.56;;;6.50;100.00
19624;BME280;9959;49.798;9.928;2023-03-25T03:52:07;98747.47;;;6.54;100.00
19624;BME280;9959;49.798;9.928;2023-03-25T03:54:42;98746.44;;;6.55;99.23
19624;BME280;9959;49.798;9.928;2023-03-25T03:57:19;98752.38;;;6.57;99.59
19624;BME280;9959;49.798;9.928;2023-03-25T04:00:04;98749.31;;;6.47;100.00
19624;BME280;9959;49.798;9.928;2023-03-25T04:02:41;98750.31;;;6.59;97.72
19624;BME280;9959;49.798;9.928;2023-03-25T04:05:15;98761.22;;;6.77;95.14
19624;BME280;9959;49.798;9.928;2023-03-25T04:08:04;98763.91;;;6.57;98.14
19624;BME280;9959;49.798;9.928;2023-03-25T04:13:20;98785.09;;;6.59;98.87
19624;BME280;9959;49.798;9.928;2023-03-25T04:15:47;98795.81;;;6.59;99.62
19624;BME280;9959;49.798;9.928;2023-03-25T04:18:15;98797.66;;;6.65;97.42
19624;BME280;9959;49.798;9.928;2023-03-25T04:20:43;98803.41;;;6.62;98.50
19624;BME280;9959;49.798;9.928;2023-03-25T04:23:11;98800.75;;;6.62;99.45
19624;BME280;9959;49.798;9.928;2023-03-25T04:25:44;98797.44;;;6.73;98.59
19624;BME280;9959;49.798;9.928;2023-03-25T04:28:21;98818.66;;;6.81;95.92
19624;BME280;9959;49.798;9.928;2023-03-25T04:30:49;98813.28;;;6.88;95.48
19624;BME280;9959;49.798;9.928;2023-03-25T04:33:22;98812.44;;;6.87;95.26
19624;BME280;9959;49.798;9.928;2023-03-25T04:35:50;98817.63;;;6.82;96.27
19624;BME280;9959;49.798;9.928;2023-03-25T04:38:18;98818.66;;;6.81;95.99
19624;BME280;9959;49.798;9.928;2023-03-25T04:40:45;98812.03;;;6.90;94.62
19624;BME280;9959;49.798;9.928;2023-03-25T04:43:13;98820.47;;;6.87;95.74
19624;BME280;9959;49.798;9.928;2023-03-25T04:45:42;98815.34;;;6.86;95.68
19624;BME280;9959;49.798;9.928;2023-03-25T04:48:21;98825.22;;;6.98;93.19
19624;BME280;9959;49.798;9.928;2023-03-25T04:50:49;98827.06;;;7.04;91.88
19624;BME280;9959;49.798;9.928;2023-03-25T04:53:21;98818.78;;;7.12;91.34
19624;BME280;9959;49.798;9.928;2023-03-25T04:55:48;98821.91;;;7.09;91.49
19624;BME280;9959;49.798;9.928;2023-03-25T04:58:16;98823.72;;;7.16;90.08
19624;BME280;9959;49.798;9.928;2023-03-25T05:00:44;98823.56;;;7.10;91.32
19624;BME280;9959;49.798;9.928;2023-03-25T05:03:12;98828.88;;;7.17;89.11
19624;BME280;9959;49.798;9.928;2023-03-25T05:05:43;98838.16;;;7.14;89.18
19624;BME280;9959;49.798;9.928;2023-03-25T05:08:10;98840.00;;;7.21;88.25
19624;BME280;9959;49.798;9.928;2023-03-25T05:10:37;98829.88;;;7.23;87.65
19624;BME280;9959;49.798;9.928;2023-03-25T05:13:06;98842.44;;;7.29;86.44
19624;BME280;9959;49.798;9.928;2023-03-25T05:15:35;98842.03;;;7.25;86.40
19624;BME280;9959;49.798;9.928;2023-03-25T05:18:07;98847.63;;;7.24;87.11
19624;BME280;9959;49.798;9.928;2023-03-25T05:20:36;98829.25;;;7.27;85.50
19624;BME280;9959;49.798;9.928;2023-03-25T05:23:06;98829.69;;;7.18;86.37
19624;BME280;9959;49.798;9.928;2023-03-25T05:25:34;98833.41;;;7.17;86.34
19624;BME280;9959;49.798;9.928;2023-03-25T05:28:02;98832.19;;;7.12;85.87
19624;BME280;9959;49.798;9.928;2023-03-25T05:30:31;98834.66;;;7.14;86.03
19624;BME280;9959;49.798;9.928;2023-03-25T05:32:59;98842.88;;;7.12;85.43
19624;BME280;9959;49.798;9.928;2023-03-25T05:35:27;98831.75;;;7.16;85.62
19624;BME280;9959;49.798;9.928;2023-03-25T05:37:53;98834.63;;;7.21;85.32
19624;BME280;9959;49.798;9.928;2023-03-25T05:40:24;98828.44;;;7.27;84.42
19624;BME280;9959;49.798;9.928;2023-03-25T05:42:51;98842.03;;;7.32;84.37
19624;BME280;9959;49.798;9.928;2023-03-25T05:45:21;98850.69;;;7.34;84.59
19624;BME280;9959;49.798;9.928;2023-03-25T05:47:47;98852.13;;;7.36;84.51
19624;BME280;9959;49.798;9.928;2023-03-25T05:50:17;98850.69;;;7.34;85.23
19624;BME280;9959;49.798;9.928;2023-03-25T05:52:44;98858.31;;;7.37;86.43
19624;BME280;9959;49.798;9.928;2023-03-25T05:55:18;98856.06;;;7.34;86.90
19624;BME280;9959;49.798;9.928;2023-03-25T05:57:46;98870.91;;;7.30;86.03
19624;BME280;9959;49.798;9.928;2023-03-25T06:00:15;98867.19;;;7.31;86.62
19624;BME280;9959;49.798;9.928;2023-03-25T06:02:45;98860.78;;;7.32;87.52
19624;BME280;9959;49.798;9.928;2023-03-25T06:05:13;98859.97;;;7.25;88.02
19624;BME280;9959;49.798;9.928;2023-03-25T06:07:42;98861.00;;;7.24;87.27
19624;BME280;9959;49.798;9.928;2023-03-25T06:10:10;98872.97;;;7.28;87.56
19624;BME280;9959;49.798;9.928;2023-03-25T06:12:38;98865.13;;;7.26;88.66
19624;BME280;9959;49.798;9.928;2023-03-25T06:17:34;98884.91;;;7.19;92.02
19624;BME280;9959;49.798;9.928;2023-03-25T06:22:36;98885.31;;;7.29;91.53
19624;BME280;9959;49.798;9.928;2023-03-25T06:25:04;98876.06;;;7.25;90.93
19624;BME280;9959;49.798;9.928;2023-03-25T06:27:31;98875.22;;;7.31;89.89
19624;BME280;9959;49.798;9.928;2023-03-25T06:30:01;98869.88;;;7.31;90.68
19624;BME280;9959;49.798;9.928;2023-03-25T06:32:28;98879.13;;;7.35;90.70
19624;BME280;9959;49.798;9.928;2023-03-25T06:34:58;98882.44;;;7.37;91.03
19624;BME280;9959;49.798;9.928;2023-03-25T06:37:25;98880.94;;;7.41;92.03
19624;BME280;9959;49.798;9.928;2023-03-25T06:39:54;98881.78;;;7.41;90.93
19624;BME280;9959;49.798;9.928;2023-03-25T06:42:22;98885.28;;;7.42;93.22
19624;BME280;9959;49.798;9.928;2023-03-25T06:44:52;98875.38;;;7.42;93.52
19624;BME280;9959;49.798;9.928;2023-03-25T06:47:20;98873.97;;;7.33;94.15
19624;BME280;9959;49.798;9.928;2023-03-25T06:49:47;98878.47;;;7.39;94.12
19624;BME280;9959;49.798;9.928;2023-03-25T06:52:14;98879.09;;;7.48;93.15
19624;BME280;9959;49.798;9.928;2023-03-25T06:54:41;98875.75;;;7.59;92.76
19624;BME280;9959;49.798;9.928;2023-03-25T06:57:08;98872.03;;;7.60;92.27
19624;BME280;9959;49.798;9.928;2023-03-25T06:59:36;98880.63;;;7.75;90.98
19624;BME280;9959;49.798;9.928;2023-03-25T07:02:06;98867.78;;;7.91;88.59
19624;BME280;9959;49.798;9.928;2023-03-25T07:04:32;98875.56;;;7.99;88.31
19624;BME280;9959;49.798;9.928;2023-03-25T07:06:59;98883.38;;;8.07;87.84
19624;BME280;9959;49.798;9.928;2023-03-25T07:09:26;98875.84;;;8.22;85.15
19624;BME280;9959;49.798;9.928;2023-03-25T07:11:53;98874.19;;;8.34;84.71
19624;BME280;9959;49.798;9.928;2023-03-25T07:14:20;98884.47;;;8.37;84.67
19624;BME280;9959;49.798;9.928;2023-03-25T07:16:47;98882.44;;;8.33;84.29
19624;BME280;9959;49.798;9.928;2023-03-25T07:19:15;98880.63;;;8.58;83.54
19624;BME280;9959;49.798;9.928;2023-03-25T07:21:42;98888.41;;;8.66;82.86
19624;BME280;9959;49.798;9.928;2023-03-25T07:24:09;98879.28;;;8.74;80.48
19624;BME280;9959;49.798;9.928;2023-03-25T07:26:36;98878.44;;;8.98;80.10
19624;BME280;9959;49.798;9.928;2023-03-25T07:29:03;98872.56;;;8.83;79.45
19624;BME280;9959;49.798;9.928;2023-03-25T07:31:30;98879.34;;;9.10;79.51
19624;BME280;9959;49.798;9.928;2023-03-25T07:33:57;98881.38;;;9.15;79.79
19624;BME280;9959;49.798;9.928;2023-03-25T07:36:34;98898.59;;;8.58;83.83
19624;BME280;9959;49.798;9.928;2023-03-25T07:39:01;98890.31;;;8.21;84.86
19624;BME280;9959;49.798;9.928;2023-03-25T07:41:28;98883.66;;;8.37;86.06
19624;BME280;9959;49.798;9.928;2023-03-25T07:43:55;98896.88;;;8.38;84.62
19624;BME280;9959;49.798;9.928;2023-03-25T07:46:22;98897.53;;;8.59;83.57
19624;BME280;9959;49.798;9.928;2023-03-25T07:48:50;98895.03;;;8.64;84.31
19624;BME280;9959;49.798;9.928;2023-03-25T07:51:17;98909.97;;;8.53;82.40
19624;BME280;9959;49.798;9.928;2023-03-25T07:53:44;98901.44;;;8.63;82.43
19624;BME280;9959;49.798;9.928;2023-03-25T07:56:12;98897.03;;;8.75;82.29
19624;BME280;9959;49.798;9.928;2023-03-25T07:58:40;98895.66;;;8.66;81.91
19624;BME280;9959;49.798;9.928;2023-03-25T08:01:09;98902.41;;;8.75;80.72
19624;BME280;9959;49.798;9.928;2023-03-25T08:03:36;98893.09;;;9.02;78.99
19624;BME280;9959;49.798;9.928;2023-03-25T08:06:06;98911.94;;;9.21;77.53
19624;BME280;9959;49.798;9.928;2023-03-25T08:08:34;98906.44;;;9.09;78.62
19624;BME280;9959;49.798;9.928;2023-03-25T08:11:01;98902.28;;;9.13;79.01
19624;BME280;9959;49.798;9.928;2023-03-25T08:13:29;98896.88;;;8.95;77.90
19624;BME280;9959;49.798;9.928;2023-03-25T08:15:57;98902.50;;;9.11;76.87
19624;BME280;9959;49.798;9.928;2023-03-25T08:18:24;98914.84;;;9.37;75.74
19624;BME280;9959;49.798;9.928;2023-03-25T08:20:51;98902.56;;;9.48;75.19
19624;BME280;9959;49.798;9.928;2023-03-25T08:23:20;98914.53;;;9.52;74.27
19624;BME280;9959;49.798;9.928;2023-03-25T08:25:49;98906.44;;;9.70;73.26
19624;BME280;9959;49.798;9.928;2023-03-25T08:28:18;98905.97;;;9.92;72.32
19624;BME280;9959;49.798;9.928;2023-03-25T08:30:52;98910.00;;;10.19;71.24
19624;BME280;9959;49.798;9.928;2023-03-25T08:33:23;98898.63;;;10.35;70.27
19624;BME280;9959;49.798;9.928;2023-03-25T08:35:59;98893.28;;;10.47;69.91
19624;BME280;9959;49.798;9.928;2023-03-25T08:38:27;98898.03;;;10.75;66.88
19624;BME280;9959;49.798;9.928;2023-03-25T08:41:01;98912.03;;;10.54;66.38
19624;BME280;9959;49.798;9.928;2023-03-25T08:43:28;98905.38;;;10.56;66.07
19624;BME280;9959;49.798;9.928;2023-03-25T08:45:55;98905.94;;;11.23;63.28
19624;BME280;9959;49.798;9.928;2023-03-25T08:48:26;98892.28;;;10.71;65.67
19624;BME280;9959;49.798;9.928;2023-03-25T08:50:53;98894.59;;;11.21;65.13
19624;BME280;9959;49.798;9.928;2023-03-25T08:53:20;98889.88;;;11.28;63.40
19624;BME280;9959;49.798;9.928;2023-03-25T08:55:57;98884.78;;;10.62;65.51
19624;BME280;9959;49.798;9.928;2023-03-25T08:58:25;98878.84;;;11.53;62.73
19624;BME280;9959;49.798;9.928;2023-03-25T09:00:54;98877.53;;;11.56;60.33
19624;BME280;9959;49.798;9.928;2023-03-25T09:03:22;98880.19;;;11.91;60.51
19624;BME280;9959;49.798;9.928;2023-03-25T09:05:49;98884.00;;;12.06;59.93
19624;BME280;9959;49.798;9.928;2023-03-25T09:08:17;98891.88;;;12.36;59.52
19624;BME280;9959;49.798;9.928;2023-03-25T09:10:44;98889.69;;;11.93;58.99
19624;BME280;9959;49.798;9.928;2023-03-25T09:13:11;98891.25;;;11.77;59.54
19624;BME280;9959;49.798;9.928;2023-03-25T09:15:38;98893.75;;;12.07;58.24
19624;BME280;9959;49.798;9.928;2023-03-25T09:18:05;98887.78;;;12.79;56.24
19624;BME280;9959;49.798;9.928;2023-03-25T09:20:32;98885.13;;;12.50;56.96
19624;BME280;9959;49.798;9.928;2023-03-25T09:22:59;98894.78;;;12.46;56.43
19624;BME280;9959;49.798;9.928;2023-03-25T09:25:26;98876.47;;;11.68;57.53
19624;BME280;9959;49.798;9.928;2023-03-25T09:27:53;98895.94;;;12.22;56.99
19624;BME280;9959;49.798;9.928;2023-03-25T09:30:20;98879.53;;;11.60;57.37
19624;BME280;9959;49.798;9.928;2023-03-25T09:32:47;98872.22;;;12.24;56.01
19624;BME280;9959;49.798;9.928;2023-03-25T09:35:14;98869.53;;;12.24;57.67
19624;BME280;9959;49.798;9.928;2023-03-25T09:37:42;98856.97;;;12.46;58.32
19624;BME280;9959;49.798;9.928;2023-03-25T09:40:12;98852.16;;;11.92;58.34
19624;BME280;9959;49.798;9.928;2023-03-25T09:43:00;98856.63;;;12.14;56.57
19624;BME280;9959;49.798;9.928;2023-03-25T09:45:35;98855.19;;;11.95;56.92
19624;BME280;9959;49.798;9.928;2023-03-25T09:48:04;98876.88;;;11.37;58.11
19624;BME280;9959;49.798;9.928;2023-03-25T09:50:35;98885.31;;;11.05;60.82
19624;BME280;9959;49.798;9.928;2023-03-25T09:55:41;98871.56;;;10.95;67.55
19624;BME280;9959;49.798;9.928;2023-03-25T10:06:19;98858.13;;;11.94;64.32
19624;BME280;9959;49.798;9.928;2023-03-25T10:14:11;98826.84;;;12.54;62.90
19624;BME280;9959;49.798;9.928;2023-03-25T10:22:33;98819.00;;;12.53;61.85
19624;BME280;9959;49.798;9.928;2023-03-25T10:25:07;98807.69;;;11.82;61.95
19624;BME280;9959;49.798;9.928;2023-03-25T10:27:41;98808.44;;;11.66;61.49
19624;BME280;9959;49.798;9.928;2023-03-25T10:30:22;98835.25;;;11.33;66.47
19624;BME280;9959;49.798;9.928;2023-03-25T10:32:52;98812.78;;;10.92;72.94
19624;BME280;9959;49.798;9.928;2023-03-25T10:35:27;98837.44;;;10.54;71.36
19624;BME280;9959;49.798;9.928;2023-03-25T10:40:42;98835.06;;;9.56;84.03
19624;BME280;9959;49.798;9.928;2023-03-25T10:43:26;98833.84;;;9.34;87.42
19624;BME280;9959;49.798;9.928;2023-03-25T10:45:58;98838.78;;;9.37;85.52
19624;BME280;9959;49.798;9.928;2023-03-25T10:48:29;98830.09;;;9.35;84.94
19624;BME280;9959;49.798;9.928;2023-03-25T10:51:08;98829.38;;;9.28;89.24
19624;BME280;9959;49.798;9.928;2023-03-25T10:53:34;98802.69;;;9.93;83.29
19624;BME280;9959;49.798;9.928;2023-03-25T10:58:36;98826.31;;;10.50;80.41
19624;BME280;9959;49.798;9.928;2023-03-25T11:03:34;98854.44;;;9.58;84.81
19624;BME280;9959;49.798;9.928;2023-03-25T11:06:01;98840.63;;;9.73;91.00
19624;BME280;9959;49.798;9.928;2023-03-25T11:08:29;98838.66;;;9.98;87.12
19624;BME280;9959;49.798;9.928;2023-03-25T11:10:56;98830.09;;;10.96;86.80
19624;BME280;9959;49.798;9.928;2023-03-25T11:13:29;98825.94;;;10.47;81.06
19624;BME280;9959;49.798;9.928;2023-03-25T11:15:58;98823.25;;;11.52;78.65
19624;BME280;9959;49.798;9.928;2023-03-25T11:18:37;98824.94;;;11.30;76.29
19624;BME280;9959;49.798;9.928;2023-03-25T11:23:35;98830.34;;;11.06;79.45
19624;BME280;9959;49.798;9.928;2023-03-25T11:28:40;98838.75;;;10.75;79.26
19624;BME280;9959;49.798;9.928;2023-03-25T11:31:21;98838.47;;;10.41;77.87
19624;BME280;9959;49.798;9.928;2023-03-25T11:36:59;98890.88;;;9.91;83.00
19624;BME280;9959;49.798;9.928;2023-03-25T11:39:35;76477.28;;;7.91;86.81
19624;BME280;9959;49.798;9.928;2023-03-25T11:44:54;98885.56;;;7.78;88.66
19624;BME280;9959;49.798;9.928;2023-03-25T11:47:25;98864.13;;;7.78;89.58
19624;BME280;9959;49.798;9.928;2023-03-25T11:49:52;98852.03;;;8.01;87.67
19624;BME280;9959;49.798;9.928;2023-03-25T11:52:23;98875.56;;;9.18;85.33
19624;BME280;9959;49.798;9.928;2023-03-25T11:54:55;98868.63;;;10.02;86.63
19624;BME280;9959;49.798;9.928;2023-03-25T11:57:26;98869.63;;;9.71;84.00
19624;BME280;9959;49.798;9.928;2023-03-25T12:00:02;98859.81;;;9.58;83.88
19624;BME280;9959;49.798;9.928;2023-03-25T12:02:37;98860.22;;;10.81;85.02
19624;BME280;9959;49.798;9.928;2023-03-25T12:23:23;98842.66;;;9.41;85.11
19624;BME280;9959;49.798;9.928;2023-03-25T12:28:47;98919.56;;;7.91;99.52
19624;BME280;9959;49.798;9.928;2023-03-25T12:31:30;98898.38;;;7.70;100.00
19624;BME280;9959;49.798;9.928;2023-03-25T12:36:44;98886.09;;;7.49;98.30
19624;BME280;9959;49.798;9.928;2023-03-25T12:42:34;98873.13;;;8.35;93.70
19624;BME280;9959;49.798;9.928;2023-03-25T12:50:53;98859.97;;;12.05;80.95
19624;BME280;9959;49.798;9.928;2023-03-25T12:53:44;98865.81;;;12.59;78.22
19624;BME280;9959;49.798;9.928;2023-03-25T12:59:26;98865.00;;;12.92;73.65
19624;BME280;9959;49.798;9.928;2023-03-25T13:12:29;98843.59;;;14.86;62.77
19624;BME280;9959;49.798;9.928;2023-03-25T13:17:39;98829.16;;;16.33;56.55
19624;BME280;9959;49.798;9.928;2023-03-25T13:20:09;98823.69;;;15.55;56.54
19624;BME280;9959;49.798;9.928;2023-03-25T13:22:40;98814.75;;;17.18;52.47
19624;BME280;9959;49.798;9.928;2023-03-25T13:25:29;98803.28;;;16.20;52.64
19624;BME280;9959;49.798;9.928;2023-03-25T13:28:02;98795.03;;;17.67;50.16
19624;BME280;9959;49.798;9.928;2023-03-25T13:35:41;98800.03;;;16.23;50.29
19624;BME280;9959;49.798;9.928;2023-03-25T13:38:16;98809.06;;;17.00;50.55
19624;BME280;9959;49.798;9.928;2023-03-25T13:40:52;98799.66;;;14.26;54.13
19624;BME280;9959;49.798;9.928;2023-03-25T13:43:28;98802.44;;;13.00;57.96
19624;BME280;9959;49.798;9.928;2023-03-25T13:48:50;98798.31;;;12.13;60.13
19624;BME280;9959;49.798;9.928;2023-03-25T13:51:19;98807.56;;;11.89;61.82
19624;BME280;9959;49.798;9.928;2023-03-25T13:57:00;98792.38;;;11.19;71.61
19624;BME280;9959;49.798;9.928;2023-03-25T14:13:16;98792.47;;;12.50;66.48
19624;BME280;9959;49.798;9.928;2023-03-25T14:18:41;98805.03;;;13.11;61.89
19624;BME280;9959;49.798;9.928;2023-03-25T14:24:02;98807.31;;;12.19;66.09
19624;BME280;9959;49.798;9.928;2023-03-25T14:26:36;98814.25;;;11.86;66.78
19624;BME280;9959;49.798;9.928;2023-03-25T14:29:18;98811.78;;;11.45;64.21
19624;BME280;9959;49.798;9.928;2023-03-25T14:34:35;98799.59;;;11.82;60.61
19624;BME280;9959;49.798;9.928;2023-03-25T14:39:39;98807.00;;;11.87;58.33
19624;BME280;9959;49.798;9.928;2023-03-25T14:42:24;98821.56;;;11.74;58.22
19624;BME280;9959;49.798;9.928;2023-03-25T14:47:50;98811.94;;;14.97;50.00
19624;BME280;9959;49.798;9.928;2023-03-25T14:52:49;98789.47;;;15.54;46.23
19624;BME280;9959;49.798;9.928;2023-03-25T14:55:29;98813.78;;;15.34;46.18
19624;BME280;9959;49.798;9.928;2023-03-25T15:00:40;98797.91;;;17.01;43.36
19624;BME280;9959;49.798;9.928;2023-03-25T15:03:13;98809.28;;;16.42;43.28
19624;BME280;9959;49.798;9.928;2023-03-25T15:05:52;98796.44;;;17.49;41.62
19624;BME280;9959;49.798;9.928;2023-03-25T15:08:34;98791.84;;;17.35;41.36
19624;BME280;9959;49.798;9.928;2023-03-25T15:13:38;98778.81;;;15.37;44.28
19624;BME280;9959;49.798;9.928;2023-03-25T15:23:40;98769.09;;;16.70;42.00
19624;BME280;9959;49.798;9.928;2023-03-25T15:26:34;98784.59;;;17.84;38.99
19624;BME280;9959;49.798;9.928;2023-03-25T15:37:47;98801.91;;;15.45;41.33
19624;BME280;9959;49.798;9.928;2023-03-25T15:40:30;98782.19;;;16.68;38.73
19624;BME280;9959;49.798;9.928;2023-03-25T15:45:59;98788.13;;;16.75;38.31
19624;BME280;9959;49.798;9.928;2023-03-25T15:54:43;98802.81;;;16.69;37.02
19624;BME280;9959;49.798;9.928;2023-03-25T15:59:53;98788.38;;;16.99;36.34
19624;BME280;9959;49.798;9.928;2023-03-25T16:02:32;98776.13;;;16.25;37.46
19624;BME280;9959;49.798;9.928;2023-03-25T16:05:02;98781.44;;;15.74;38.64
19624;BME280;9959;49.798;9.928;2023-03-25T16:07:30;98785.09;;;16.46;37.14
19624;BME280;9959;49.798;9.928;2023-03-25T16:10:10;98763.59;;;15.99;37.68
19624;BME280;9959;49.798;9.928;2023-03-25T16:12:35;98772.34;;;16.51;36.60
19624;BME280;9959;49.798;9.928;2023-03-25T16:15:04;98772.88;;;16.53;37.09
19624;BME280;9959;49.798;9.928;2023-03-25T16:17:34;98784.53;;;15.41;38.24
19624;BME280;9959;49.798;9.928;2023-03-25T16:20:01;98777.28;;;16.65;37.04
19624;BME280;9959;49.798;9.928;2023-03-25T16:22:33;98776.69;;;16.37;37.19
19624;BME280;9959;49.798;9.928;2023-03-25T16:25:05;98772.00;;;15.97;38.05
19624;BME280;9959;49.798;9.928;2023-03-25T16:27:40;98781.00;;;16.23;37.62
19624;BME280;9959;49.798;9.928;2023-03-25T16:35:47;98777.63;;;15.70;38.76
19624;BME280;9959;49.798;9.928;2023-03-25T16:38:18;98796.19;;;15.99;38.88
19624;BME280;9959;49.798;9.928;2023-03-25T16:40:48;98793.16;;;15.28;40.01
19624;BME280;9959;49.798;9.928;2023-03-25T16:43:21;98781.06;;;15.55;39.55
19624;BME280;9959;49.798;9.928;2023-03-25T16:46:01;98790.69;;;14.20;42.24
19624;BME280;9959;49.798;9.928;2023-03-25T16:48:34;98782.13;;;12.80;45.79
19624;BME280;9959;49.798;9.928;2023-03-25T16:53:36;98780.66;;;12.23;47.75
19624;BME280;9959;49.798;9.928;2023-03-25T16:58:36;98785.97;;;11.89;48.88
19624;BME280;9959;49.798;9.928;2023-03-25T17:01:22;98778.72;;;11.78;48.88
19624;BME280;9959;49.798;9.928;2023-03-25T17:03:49;98797.75;;;11.71;48.86
19624;BME280;9959;49.798;9.928;2023-03-25T17:06:32;98801.88;;;11.62;49.26
19624;BME280;9959;49.798;9.928;2023-03-25T17:11:34;98806.09;;;11.58;50.27
19624;BME280;9959;49.798;9.928;2023-03-25T17:14:04;98813.63;;;11.56;50.71
19624;BME280;9959;49.798;9.928;2023-03-25T17:16:35;98811.03;;;11.49;51.34
19624;BME280;9959;49.798;9.928;2023-03-25T17:19:03;98812.72;;;11.39;51.82
19624;BME280;9959;49.798;9.928;2023-03-25T17:21:32;98821.19;;;11.31;52.77
19624;BME280;9959;49.798;9.928;2023-03-25T17:24:01;98824.50;;;11.21;53.24